TILLAMOOK BAY SOUTH JETTY, OR - 270

GPS Positions

GPS Time
Latitude
Degrees
Longitude
Degrees
Gap
 
Distance
NM
Speed
Knots
Direction
Degrees
Apr 18, 04:11 45.56079° -123.99059° 2 min 0.04 0.00
Apr 18, 04:09 45.56079° -123.99059° 8 min 0.04 0.00
Apr 18, 04:01 45.56079° -123.99059° 2 min 0.04 0.03
270°
Apr 18, 03:59 45.56079° -123.99057° 8 min 0.04 0.01
270°
Apr 18, 03:51 45.56079° -123.99055° 1 min 0.04 0.03
90°
Apr 18, 03:49 45.56079° -123.99057° 8 min 0.04 0.01
115°
Apr 18, 03:41 45.56080° -123.99059° 2 min 0.04 0.00
Apr 18, 03:39 45.56080° -123.99059° 8 min 0.04 0.00
Apr 18, 03:31 45.56080° -123.99059° 2 min 0.04 0.00
Apr 18, 03:29 45.56080° -123.99059° 8 min 0.04 0.01
65°
Apr 18, 03:21 45.56079° -123.99062° 2 min 0.04 0.03
270°
Apr 18, 03:19 45.56079° -123.99059° 8 min 0.04 0.00
Apr 18, 03:11 45.56079° -123.99059° 2 min 0.04 0.00
Apr 18, 03:09 45.56079° -123.99059° 8 min 0.04 0.01
90°
Apr 18, 03:01 45.56079° -123.99062° 2 min 0.04 0.02
126°
Apr 18, 02:59 45.56080° -123.99063° 8 min 0.04 0.01
306°
Apr 18, 02:51 45.56079° -123.99062° 2 min 0.04 0.02
90°
Apr 18, 02:49 45.56079° -123.99063° 8 min 0.04 0.00
Apr 18, 02:41 45.56079° -123.99063° 2 min 0.04 0.00
Apr 18, 02:39 45.56079° -123.99063° 8 min 0.04 0.01
90°
Apr 18, 02:31 45.56079° -123.99068° 2 min 0.04 0.03
270°
Apr 18, 02:29 45.56079° -123.99065° 8 min 0.04 0.01
90°
Apr 18, 02:21 45.56079° -123.99068° 2 min 0.04 0.01
180°
Apr 18, 02:19 45.56080° -123.99068° 8 min 0.04 0.01
Apr 18, 02:11 45.56077° -123.99068° 2 min 0.04 0.04
180°
Apr 18, 02:09 45.56079° -123.99068° 8 min 0.04 0.01
90°
Apr 18, 02:01 45.56079° -123.99070° 2 min 0.04 0.04
Apr 18, 01:59 45.56077° -123.99070° 8 min 0.04 0.01
180°
Apr 18, 01:51 45.56079° -123.99070° 2 min 0.04 0.03
90°
Apr 18, 01:49 45.56079° -123.99072° 8 min 0.04 0.00
Apr 18, 01:41 45.56079° -123.99072° 2 min 0.04 0.02
90°
Apr 18, 01:39 45.56079° -123.99074° 8 min 0.04 0.00
Apr 18, 01:31 45.56079° -123.99074° 2 min 0.04 0.00
Apr 18, 01:29 45.56079° -123.99074° 8 min 0.04 0.01
254°
Apr 18, 01:21 45.56080° -123.99070° 2 min 0.04 0.05
Apr 18, 01:19 45.56077° -123.99070° 8 min 0.04 0.02
118°
Apr 18, 01:11 45.56079° -123.99076° 2 min 0.04 0.05
325°
Apr 18, 01:09 45.56077° -123.99074° 8 min 0.04 0.01
145°
Apr 18, 01:01 45.56079° -123.99076° 2 min 0.04 0.01
180°
Apr 18, 00:59 45.56080° -123.99076° 8 min 0.04 0.02
332°
Apr 18, 00:51 45.56077° -123.99074° 2 min 0.04 0.04
180°
Apr 18, 00:49 45.56079° -123.99074° 8 min 0.04 0.01
103°
Apr 18, 00:41 45.56080° -123.99078° 2 min 0.04 0.00
Apr 18, 00:39 45.56080° -123.99078° 8 min 0.04 0.01
65°
Apr 18, 00:31 45.56079° -123.99081° 2 min 0.04 0.03
90°
Apr 18, 00:29 45.56079° -123.99083° 8 min 0.04 0.00
Apr 18, 00:21 45.56079° -123.99083° 2 min 0.04 0.03
245°
Apr 18, 00:19 45.56080° -123.99081° 8 min 0.04 0.01
90°
Apr 18, 00:11 45.56080° -123.99085° 2 min 0.04 0.03
270°
Apr 18, 00:09 45.56080° -123.99083° 8 min 0.04 0.01
90°
Apr 18, 00:01 45.56080° -123.99085° 2 min 0.04 0.00
Apr 17, 23:59 45.56080° -123.99085° 8 min 0.04 0.01
90°
Apr 17, 23:51 45.56080° -123.99089° 2 min 0.04 0.00
Apr 17, 23:49 45.56080° -123.99089° 8 min 0.04 0.02
280°
Apr 17, 23:41 45.56079° -123.99083° 2 min 0.04 0.05
90°
Apr 17, 23:39 45.56079° -123.99087° 8 min 0.04 0.01
115°
Apr 17, 23:31 45.56080° -123.99089° 2 min 0.04 0.03
295°
Apr 17, 23:29 45.56079° -123.99087° 8 min 0.04 0.00
Apr 17, 23:21 45.56079° -123.99087° 2 min 0.04 0.03
115°
Apr 17, 23:19 45.56080° -123.99089° 8 min 0.04 0.02
319°
Apr 17, 23:11 45.56077° -123.99085° 2 min 0.04 0.04
180°
Apr 17, 23:09 45.56079° -123.99085° 8 min 0.04 0.00
90°
Apr 17, 23:01 45.56079° -123.99087° 2 min 0.04 0.00
Apr 17, 22:59 45.56079° -123.99087° 8 min 0.04 0.00
Apr 17, 22:51 45.56079° -123.99087° 1 min 0.04 0.02
270°
Apr 17, 22:49 45.56079° -123.99085° 8 min 0.04 0.01
90°
Apr 17, 22:41 45.56079° -123.99089° 2 min 0.04 0.03
245°
Apr 17, 22:39 45.56080° -123.99087° 8 min 0.04 0.00
Apr 17, 22:31 45.56079° -123.99087° 2 min 0.04 0.00
Apr 17, 22:29 45.56079° -123.99087° 8 min 0.04 0.01
115°
Apr 17, 22:21 45.56080° -123.99089° 2 min 0.04 0.01
Apr 17, 22:19 45.56079° -123.99089° 8 min 0.04 0.01
270°
Apr 17, 22:11 45.56079° -123.99085° 2 min 0.04 0.06
161°
Apr 17, 22:09 45.56082° -123.99087° 8 min 0.04 0.01
90°
Apr 17, 22:01 45.56082° -123.99089° 2 min 0.04 0.00
Apr 17, 21:59 45.56082° -123.99089° 8 min 0.04 0.01
Apr 17, 21:51 45.56080° -123.99089° 2 min 0.04 0.04
180°
Apr 17, 21:49 45.56082° -123.99089° 8 min 0.04 0.00
Apr 17, 21:41 45.56082° -123.99089° 2 min 0.04 0.03
90°
Apr 17, 21:39 45.56082° -123.99091° 8 min 0.04 0.02
306°
Apr 17, 21:31 45.56079° -123.99085° 2 min 0.04 0.03
270°
Apr 17, 21:29 45.56079° -123.99083° 8 min 0.04 0.01
115°
Apr 17, 21:21 45.56080° -123.99085° 2 min 0.04 0.03
270°
Apr 17, 21:19 45.56080° -123.99083° 8 min 0.04 0.03
277°
Apr 17, 21:11 45.56079° -123.99074° 2 min 0.04 0.00
Apr 17, 21:09 45.56079° -123.99074° 8 min 0.04 0.02
298°
Apr 17, 21:01 45.56077° -123.99068° 2 min 0.04 0.05
145°
Apr 17, 20:59 45.56079° -123.99070° 8 min 0.04 0.02
Apr 17, 20:51 45.56075° -123.99070° 2 min 0.04 0.05
215°
Apr 17, 20:49 45.56077° -123.99068° 8 min 0.04 0.01
90°
Apr 17, 20:41 45.56077° -123.99070° 2 min 0.04 0.03
270°
Apr 17, 20:39 45.56077° -123.99068° 8 min 0.04 0.01
180°
Apr 17, 20:31 45.56079° -123.99068° 2 min 0.04 0.04
Apr 17, 20:29 45.56077° -123.99068° 8 min 0.04 0.00
Apr 17, 20:21 45.56077° -123.99068° 2 min 0.04 0.04
Apr 17, 20:19 45.56075° -123.99068° 8 min 0.04 0.01
306°
Apr 17, 20:11 45.56073° -123.99065° 2 min 0.04 0.07
155°
Apr 17, 20:09 45.56077° -123.99068° 8 min 0.04 0.01
270°
Apr 17, 20:01 45.56077° -123.99063° 2 min 0.04 0.04
Apr 17, 19:59 45.56075° -123.99063° 8 min 0.04 0.02
126°
Apr 17, 19:51 45.56077° -123.99068° 2 min 0.04 0.00
Apr 17, 19:49 45.56077° -123.99068° 8 min 0.04 0.00
Apr 17, 19:41 45.56077° -123.99068° 2 min 0.04 0.00
Apr 17, 19:39 45.56077° -123.99068° 8 min 0.04 0.01
90°
Apr 17, 19:31 45.56077° -123.99070° 2 min 0.04 0.04
Apr 17, 19:29 45.56075° -123.99070° 8 min 0.04 0.02
75°
Apr 17, 19:21 45.56073° -123.99076° 2 min 0.04 0.07
155°
Apr 17, 19:19 45.56077° -123.99078° 8 min 0.04 0.02
306°
Apr 17, 19:11 45.56075° -123.99074° 2 min 0.04 0.04
180°
Apr 17, 19:09 45.56077° -123.99074° 8 min 0.04 0.03
90°
Apr 17, 19:01 45.56077° -123.99083° 2 min 0.04 0.04
180°
Apr 17, 18:59 45.56079° -123.99083° 8 min 0.04 0.00
Apr 17, 18:51 45.56079° -123.99083° 2 min 0.04 0.01
180°
Apr 17, 18:49 45.56080° -123.99083° 8 min 0.04 0.02
279°
Apr 17, 18:41 45.56079° -123.99076° 2 min 0.04 0.00
Apr 17, 18:39 45.56079° -123.99076° 8 min 0.04 0.01
270°
Apr 17, 18:31 45.56079° -123.99072° 2 min 0.04 0.04
Apr 17, 18:29 45.56077° -123.99072° 8 min 0.04 0.00
Apr 17, 18:21 45.56077° -123.99072° 2 min 0.04 0.04
180°
Apr 17, 18:19 45.56079° -123.99072° 8 min 0.04 0.01
270°
Apr 17, 18:11 45.56079° -123.99068° 2 min 0.04 0.01
180°
Apr 17, 18:09 45.56080° -123.99068° 8 min 0.04 0.01
270°
Apr 17, 18:01 45.56080° -123.99065° 2 min 0.04 0.03
90°
Apr 17, 17:59 45.56080° -123.99068° 8 min 0.04 0.01
283°
Apr 17, 17:51 45.56079° -123.99063° 2 min 0.04 0.01
180°
Apr 17, 17:49 45.56080° -123.99063° 8 min 0.04 0.01
270°
Apr 17, 17:41 45.56080° -123.99059° 1 min 0.04 0.00
Apr 17, 17:39 45.56080° -123.99059° 8 min 0.04 0.02
270°
Apr 17, 17:31 45.56080° -123.99052° 2 min 0.04 0.03
295°
Apr 17, 17:29 45.56079° -123.99050° 8 min 0.04 0.02
180°
Apr 17, 17:21 45.56083° -123.99050° 2 min 0.03 0.00
Apr 17, 17:19 45.56083° -123.99050° 8 min 0.03 0.01
293°
Apr 17, 17:11 45.56082° -123.99046° 2 min 0.04 0.02
180°
Apr 17, 17:09 45.56083° -123.99046° 8 min 0.03 0.00
Apr 17, 17:01 45.56083° -123.99046° 2 min 0.03 0.03
270°
Apr 17, 16:59 45.56083° -123.99044° 8 min 0.03 0.01
180°
Apr 17, 16:51 45.56085° -123.99044° 2 min 0.03 0.04
40°
Apr 17, 16:49 45.56083° -123.99046° 8 min 0.03 0.01
180°
Apr 17, 16:41 45.56085° -123.99046° 2 min 0.03 0.03
270°
Apr 17, 16:39 45.56085° -123.99044° 8 min 0.03 0.02
66°
Apr 17, 16:31 45.56083° -123.99050° 2 min 0.03 0.00
Apr 17, 16:29 45.56083° -123.99050° 8 min 0.03 0.01
90°
Apr 17, 16:21 45.56083° -123.99052° 2 min 0.03 0.03
180°
Apr 17, 16:19 45.56085° -123.99052° 8 min 0.03 0.00
Apr 17, 16:11 45.56085° -123.99052° 2 min 0.03 0.00
Apr 17, 16:09 45.56085° -123.99052° 8 min 0.03 0.01
90°
Apr 17, 16:01 45.56085° -123.99055° 2 min 0.03 0.00
Apr 17, 15:59 45.56085° -123.99055° 8 min 0.03 0.01
90°
Apr 17, 15:51 45.56085° -123.99057° 2 min 0.03 0.00
Apr 17, 15:49 45.56085° -123.99057° 8 min 0.03 0.01
126°
Apr 17, 15:41 45.56086° -123.99059° 2 min 0.03 0.04
54°
Apr 17, 15:39 45.56085° -123.99062° 8 min 0.03 0.02
105°
Apr 17, 15:31 45.56086° -123.99068° 2 min 0.03 0.00
Apr 17, 15:29 45.56086° -123.99068° 8 min 0.03 0.00
Apr 17, 15:21 45.56086° -123.99068° 2 min 0.03 0.03
90°
Apr 17, 15:19 45.56086° -123.99070° 8 min 0.03 0.00
Apr 17, 15:11 45.56086° -123.99070° 2 min 0.03 0.02
Apr 17, 15:09 45.56085° -123.99070° 8 min 0.03 0.01
234°
Apr 17, 15:01 45.56086° -123.99068° 2 min 0.03 0.02
Apr 17, 14:59 45.56085° -123.99068° 8 min 0.03 0.01
90°
Apr 17, 14:51 45.56085° -123.99070° 2 min 0.03 0.00
Apr 17, 14:49 45.56085° -123.99070° 8 min 0.03 0.01
90°
Apr 17, 14:41 45.56085° -123.99072° 2 min 0.03 0.00
Apr 17, 14:39 45.56085° -123.99072° 8 min 0.03 0.00
90°
Apr 17, 14:31 45.56085° -123.99074° 2 min 0.03 0.00
Apr 17, 14:29 45.56085° -123.99074° 8 min 0.03 0.01
180°
Apr 17, 14:21 45.56086° -123.99074° 2 min 0.03 0.00
Apr 17, 14:19 45.56086° -123.99074° 8 min 0.03 0.01
90°
Apr 17, 14:11 45.56086° -123.99076° 2 min 0.03 0.03
270°
Apr 17, 14:09 45.56086° -123.99074° 8 min 0.03 0.01
90°
Apr 17, 14:01 45.56086° -123.99078° 2 min 0.03 0.00
Apr 17, 13:59 45.56086° -123.99078° 8 min 0.03 0.01
Apr 17, 13:51 45.56085° -123.99078° 2 min 0.03 0.02
180°
Apr 17, 13:49 45.56086° -123.99078° 8 min 0.03 0.01
90°
Apr 17, 13:41 45.56086° -123.99083° 2 min 0.03 0.00
Apr 17, 13:39 45.56086° -123.99083° 8 min 0.03 0.01
270°
Apr 17, 13:31 45.56086° -123.99081° 2 min 0.03 0.03
90°
Apr 17, 13:29 45.56086° -123.99083° 8 min 0.03 0.02
131°
Apr 17, 13:21 45.56089° -123.99087° 2 min 0.03 0.06
311°
Apr 17, 13:19 45.56086° -123.99083° 8 min 0.03 0.01
90°
Apr 17, 13:11 45.56086° -123.99085° 2 min 0.03 0.05
155°
Apr 17, 13:09 45.56089° -123.99087° 8 min 0.03 0.01
90°
Apr 17, 13:01 45.56089° -123.99089° 2 min 0.03 0.00
Apr 17, 12:59 45.56089° -123.99089° 8 min 0.03 0.00
Apr 17, 12:51 45.56089° -123.99089° 2 min 0.03 0.00
Apr 17, 12:49 45.56089° -123.99089° 8 min 0.03 0.01
325°
Apr 17, 12:41 45.56086° -123.99087° 2 min 0.03 0.00
Apr 17, 12:39 45.56086° -123.99087° 8 min 0.03 0.01
90°
Apr 17, 12:31 45.56086° -123.99089° 2 min 0.03 0.00
Apr 17, 12:29 45.56086° -123.99089° 8 min 0.03 0.00
Apr 17, 12:21 45.56086° -123.99089° 2 min 0.03 0.00
Apr 17, 12:19 45.56086° -123.99089° 8 min 0.03 0.00
Apr 17, 12:11 45.56086° -123.99089° 2 min 0.03 0.05
145°
Apr 17, 12:09 45.56089° -123.99091° 8 min 0.03 0.01
270°
Apr 17, 12:01 45.56089° -123.99089° 1 min 0.03 0.04
Apr 17, 11:59 45.56086° -123.99089° 8 min 0.03 0.00
Apr 17, 11:51 45.56086° -123.99089° 2 min 0.03 0.00
Apr 17, 11:49 45.56086° -123.99089° 8 min 0.03 0.00
Apr 17, 11:41 45.56086° -123.99089° 2 min 0.03 0.00
Apr 17, 11:39 45.56086° -123.99089° 8 min 0.03 0.01
270°
Apr 17, 11:31 45.56086° -123.99087° 2 min 0.03 0.03
90°
Apr 17, 11:29 45.56086° -123.99089° 8 min 0.03 0.01
270°
Apr 17, 11:21 45.56086° -123.99085° 2 min 0.03 0.00
Apr 17, 11:19 45.56086° -123.99085° 8 min 0.03 0.01
43°
Apr 17, 11:11 45.56085° -123.99087° 2 min 0.03 0.02
270°
Apr 17, 11:09 45.56085° -123.99085° 8 min 0.03 0.01
90°
Apr 17, 11:01 45.56085° -123.99089° 2 min 0.04 0.03
270°
Apr 17, 10:59 45.56085° -123.99087° 8 min 0.03 0.01
306°
Apr 17, 10:51 45.56083° -123.99083° 2 min 0.04 0.03
90°
Apr 17, 10:49 45.56083° -123.99085° 8 min 0.04 0.01
220°
Apr 17, 10:41 45.56085° -123.99083° 2 min 0.03 0.03
Apr 17, 10:39 45.56083° -123.99083° 8 min 0.04 0.01
90°
Apr 17, 10:31 45.56083° -123.99087° 2 min 0.04 0.03
180°
Apr 17, 10:29 45.56085° -123.99087° 8 min 0.03 0.01
306°
Apr 17, 10:21 45.56083° -123.99083° 2 min 0.04 0.03
270°
Apr 17, 10:19 45.56083° -123.99081° 8 min 0.04 0.00
Apr 17, 10:11 45.56083° -123.99081° 2 min 0.04 0.04
54°
Apr 17, 10:09 45.56082° -123.99083° 8 min 0.04 0.00
Apr 17, 10:01 45.56082° -123.99083° 2 min 0.04 0.03
270°
Apr 17, 09:59 45.56082° -123.99081° 8 min 0.04 0.00
Apr 17, 09:51 45.56082° -123.99081° 2 min 0.04 0.00
Apr 17, 09:49 45.56082° -123.99081° 8 min 0.04 0.00
Apr 17, 09:41 45.56082° -123.99081° 2 min 0.04 0.00
Apr 17, 09:39 45.56082° -123.99081° 8 min 0.04 0.01
270°
Apr 17, 09:31 45.56082° -123.99078° 2 min 0.04 0.00
Apr 17, 09:29 45.56082° -123.99078° 8 min 0.04 0.00
Apr 17, 09:21 45.56082° -123.99078° 2 min 0.04 0.03
90°
Apr 17, 09:19 45.56082° -123.99081° 8 min 0.04 0.01
270°
Apr 17, 09:11 45.56082° -123.99078° 2 min 0.04 0.03
270°
Apr 17, 09:09 45.56082° -123.99076° 8 min 0.04 0.01
90°
Apr 17, 09:01 45.56082° -123.99078° 2 min 0.04 0.05
325°
Apr 17, 08:59 45.56080° -123.99076° 8 min 0.04 0.00
Apr 17, 08:51 45.56080° -123.99076° 2 min 0.04 0.05
145°
Apr 17, 08:49 45.56082° -123.99078° 8 min 0.04 0.01
Apr 17, 08:41 45.56080° -123.99078° 2 min 0.04 0.00
Apr 17, 08:39 45.56080° -123.99078° 8 min 0.04 0.02
234°
Apr 17, 08:31 45.56082° -123.99074° 2 min 0.04 0.04
Apr 17, 08:29 45.56080° -123.99074° 8 min 0.04 0.01
180°
Apr 17, 08:21 45.56082° -123.99074° 2 min 0.04 0.04
Apr 17, 08:19 45.56080° -123.99074° 8 min 0.04 0.01
180°
Apr 17, 08:11 45.56082° -123.99074° 2 min 0.04 0.00
Apr 17, 08:09 45.56082° -123.99074° 8 min 0.04 0.01
Apr 17, 08:01 45.56080° -123.99074° 2 min 0.04 0.00
Apr 17, 07:59 45.56080° -123.99074° 8 min 0.04 0.00
270°
Apr 17, 07:51 45.56080° -123.99072° 2 min 0.04 0.00
Apr 17, 07:49 45.56080° -123.99072° 8 min 0.04 0.00
90°
Apr 17, 07:41 45.56080° -123.99074° 2 min 0.04 0.00
Apr 17, 07:39 45.56080° -123.99074° 8 min 0.04 0.00
Apr 17, 07:31 45.56080° -123.99074° 2 min 0.04 0.00
Apr 17, 07:29 45.56080° -123.99074° 8 min 0.04 0.00
270°
Apr 17, 07:21 45.56080° -123.99072° 2 min 0.04 0.02
54°
Apr 17, 07:19 45.56079° -123.99074° 8 min 0.04 0.01
270°
Apr 17, 07:11 45.56079° -123.99070° 2 min 0.04 0.00
Apr 17, 07:09 45.56079° -123.99070° 8 min 0.04 0.01
270°
Apr 17, 07:01 45.56079° -123.99068° 2 min 0.04 0.00
Apr 17, 06:59 45.56079° -123.99068° 8 min 0.04 0.00
Apr 17, 06:51 45.56079° -123.99068° 2 min 0.04 0.00
Apr 17, 06:49 45.56079° -123.99068° 8 min 0.04 0.00
Apr 17, 06:41 45.56079° -123.99068° 2 min 0.04 0.03
270°
Apr 17, 06:39 45.56079° -123.99065° 8 min 0.04 0.01
325°
Apr 17, 06:31 45.56077° -123.99063° 1 min 0.04 0.03
90°
Apr 17, 06:29 45.56077° -123.99065° 8 min 0.04 0.00
Apr 17, 06:21 45.56077° -123.99065° 2 min 0.04 0.00
Apr 17, 06:19 45.56077° -123.99065° 8 min 0.04 0.00
Apr 17, 06:11 45.56077° -123.99065° 2 min 0.04 0.00
Apr 17, 06:09 45.56077° -123.99065° 8 min 0.04 0.01
270°
Apr 17, 06:01 45.56077° -123.99063° 2 min 0.04 0.02
270°
Apr 17, 05:59 45.56077° -123.99062° 8 min 0.04 0.00
Apr 17, 05:51 45.56077° -123.99062° 2 min 0.04 0.04
Apr 17, 05:49 45.56075° -123.99062° 8 min 0.04 0.01
270°
Apr 17, 05:41 45.56075° -123.99059° 2 min 0.04 0.00
Apr 17, 05:39 45.56075° -123.99059° 8 min 0.04 0.01
145°
Apr 17, 05:31 45.56077° -123.99062° 2 min 0.04 0.00
Apr 17, 05:29 45.56077° -123.99062° 8 min 0.04 0.01
325°
Apr 17, 05:21 45.56075° -123.99059° 2 min 0.04 0.02
Apr 17, 05:19 45.56073° -123.99059° 8 min 0.04 0.01
180°
Apr 17, 05:11 45.56075° -123.99059° 2 min 0.04 0.00
Apr 17, 05:09 45.56075° -123.99059° 8 min 0.04 0.01
270°
Apr 17, 05:01 45.56075° -123.99057° 2 min 0.04 0.00
Apr 17, 04:59 45.56075° -123.99057° 8 min 0.04 0.00
Apr 17, 04:51 45.56075° -123.99057° 2 min 0.04 0.03
90°
Apr 17, 04:49 45.56075° -123.99059° 8 min 0.04 0.01
Apr 17, 04:41 45.56073° -123.99059° 2 min 0.04 0.02
180°
Apr 17, 04:39 45.56075° -123.99059° 8 min 0.04 0.00
Apr 17, 04:31 45.56075° -123.99059° 2 min 0.04 0.00
Apr 17, 04:29 45.56075° -123.99059° 8 min 0.04 0.01
270°
Apr 17, 04:21 45.56075° -123.99057° 2 min 0.04 0.00
Apr 17, 04:19 45.56075° -123.99057° 8 min 0.04 0.01
215°
Apr 17, 04:11 45.56077° -123.99055° 2 min 0.04 0.00
Apr 17, 04:09 45.56077° -123.99055° 8 min 0.04 0.01
35°
Apr 17, 04:01 45.56075° -123.99057° 2 min 0.04 0.00
Apr 17, 03:59 45.56075° -123.99057° 8 min 0.04 0.01
270°
Apr 17, 03:51 45.56075° -123.99055° 2 min 0.04 0.03
270°
Apr 17, 03:49 45.56075° -123.99052° 8 min 0.04 0.01
90°
Apr 17, 03:41 45.56075° -123.99055° 2 min 0.04 0.00
Apr 17, 03:39 45.56075° -123.99055° 8 min 0.04 0.01
215°
Apr 17, 03:31 45.56077° -123.99052° 2 min 0.04 0.00
Apr 17, 03:29 45.56077° -123.99052° 8 min 0.04 0.00
Apr 17, 03:21 45.56077° -123.99052° 2 min 0.04 0.00
Apr 17, 03:19 45.56077° -123.99052° 8 min 0.04 0.00
Apr 17, 03:11 45.56077° -123.99052° 2 min 0.04 0.00
Apr 17, 03:09 45.56077° -123.99052° 8 min 0.04 0.01
325°
Apr 17, 03:01 45.56075° -123.99050° 2 min 0.04 0.05
145°
Apr 17, 02:59 45.56077° -123.99052° 8 min 0.04 0.01
270°
Apr 17, 02:51 45.56077° -123.99050° 2 min 0.04 0.04
180°
Apr 17, 02:49 45.56079° -123.99050° 8 min 0.04 0.01
103°
Apr 17, 02:41 45.56080° -123.99055° 2 min 0.04 0.06
90°
Apr 17, 02:39 45.56080° -123.99059° 8 min 0.04 0.01
270°
Apr 17, 02:31 45.56080° -123.99057° 2 min 0.04 0.03
90°
Apr 17, 02:29 45.56080° -123.99059° 8 min 0.04 0.00
Apr 17, 02:21 45.56080° -123.99059° 2 min 0.04 0.03
90°
Apr 17, 02:19 45.56080° -123.99062° 8 min 0.04 0.01
74°
Apr 17, 02:11 45.56079° -123.99065° 2 min 0.04 0.00
Apr 17, 02:09 45.56079° -123.99065° 8 min 0.04 0.00
Apr 17, 02:01 45.56079° -123.99065° 2 min 0.04 0.03
90°
Apr 17, 01:59 45.56079° -123.99068° 8 min 0.04 0.00
Apr 17, 01:51 45.56079° -123.99068° 2 min 0.04 0.01
180°
Apr 17, 01:49 45.56080° -123.99068° 8 min 0.04 0.00
Apr 17, 01:41 45.56079° -123.99068° 2 min 0.04 0.00
Apr 17, 01:39 45.56079° -123.99068° 8 min 0.04 0.01
90°
Apr 17, 01:31 45.56079° -123.99070° 2 min 0.04 0.00
Apr 17, 01:29 45.56079° -123.99070° 8 min 0.04 0.01
106°
Apr 17, 01:21 45.56080° -123.99074° 2 min 0.04 0.01
Apr 17, 01:19 45.56079° -123.99074° 8 min 0.04 0.00
180°
Apr 17, 01:11 45.56080° -123.99074° 2 min 0.04 0.04
180°
Apr 17, 01:09 45.56082° -123.99074° 8 min 0.04 0.02
54°
Apr 17, 01:01 45.56080° -123.99078° 2 min 0.04 0.04
180°
Apr 17, 00:59 45.56082° -123.99078° 8 min 0.04 0.01
Apr 17, 00:51 45.56080° -123.99078° 1 min 0.04 0.03
90°
Apr 17, 00:49 45.56080° -123.99081° 8 min 0.04 0.01
90°
Apr 17, 00:41 45.56080° -123.99083° 2 min 0.04 0.00
Apr 17, 00:39 45.56080° -123.99083° 8 min 0.04 0.01
270°
Apr 17, 00:31 45.56080° -123.99081° 2 min 0.04 0.05
145°
Apr 17, 00:29 45.56082° -123.99083° 8 min 0.04 0.01
90°
Apr 17, 00:21 45.56082° -123.99087° 2 min 0.04 0.02
270°
Apr 17, 00:19 45.56082° -123.99085° 8 min 0.04 0.01
325°
Apr 17, 00:11 45.56080° -123.99083° 2 min 0.04 0.05
215°
Apr 17, 00:09 45.56082° -123.99081° 8 min 0.04 0.01
35°
Apr 17, 00:01 45.56080° -123.99083° 2 min 0.04 0.05
145°
Apr 16, 23:59 45.56082° -123.99085° 8 min 0.04 0.00
Apr 16, 23:51 45.56082° -123.99085° 2 min 0.04 0.05
25°
Apr 16, 23:49 45.56080° -123.99087° 8 min 0.04 0.01
90°
Apr 16, 23:41 45.56080° -123.99089° 2 min 0.04 0.04
180°
Apr 16, 23:39 45.56082° -123.99089° 8 min 0.04 0.02
332°
Apr 16, 23:31 45.56079° -123.99087° 2 min 0.04 0.02
270°
Apr 16, 23:29 45.56079° -123.99085° 8 min 0.04 0.01
90°
Apr 16, 23:21 45.56079° -123.99089° 2 min 0.04 0.01
180°
Apr 16, 23:19 45.56080° -123.99089° 8 min 0.04 0.00
Apr 16, 23:11 45.56079° -123.99089° 2 min 0.04 0.01
180°
Apr 16, 23:09 45.56080° -123.99089° 8 min 0.04 0.00
Apr 16, 23:01 45.56079° -123.99089° 2 min 0.04 0.00
Apr 16, 22:59 45.56079° -123.99089° 8 min 0.04 0.01
115°
Apr 16, 22:51 45.56080° -123.99091° 2 min 0.04 0.03
295°
Apr 16, 22:49 45.56079° -123.99089° 8 min 0.04 0.00
180°
Apr 16, 22:41 45.56080° -123.99089° 2 min 0.04 0.03
90°
Apr 16, 22:39 45.56080° -123.99091° 8 min 0.04 0.00
Apr 16, 22:31 45.56080° -123.99091° 2 min 0.04 0.00
Apr 16, 22:29 45.56080° -123.99091° 8 min 0.04 0.01
215°
Apr 16, 22:21 45.56082° -123.99089° 2 min 0.04 0.05
35°
Apr 16, 22:19 45.56080° -123.99091° 8 min 0.04 0.00
Apr 16, 22:11 45.56080° -123.99091° 2 min 0.04 0.00
Apr 16, 22:09 45.56080° -123.99091° 8 min 0.04 0.01
90°
Apr 16, 22:01 45.56080° -123.99094° 2 min 0.04 0.05
215°
Apr 16, 21:59 45.56082° -123.99091° 8 min 0.04 0.00
Apr 16, 21:51 45.56082° -123.99091° 2 min 0.04 0.05
35°
Apr 16, 21:49 45.56080° -123.99094° 8 min 0.04 0.01
270°
Apr 16, 21:41 45.56080° -123.99091° 2 min 0.04 0.03
295°
Apr 16, 21:39 45.56079° -123.99089° 8 min 0.04 0.01
270°
Apr 16, 21:31 45.56079° -123.99085° 2 min 0.04 0.03
245°
Apr 16, 21:29 45.56080° -123.99083° 8 min 0.04 0.01
90°
Apr 16, 21:21 45.56080° -123.99085° 2 min 0.04 0.02
90°
Apr 16, 21:19 45.56080° -123.99087° 8 min 0.04 0.00
270°
Apr 16, 21:11 45.56080° -123.99085° 2 min 0.04 0.02
90°
Apr 16, 21:09 45.56080° -123.99087° 8 min 0.04 0.00
Apr 16, 21:01 45.56080° -123.99087° 2 min 0.04 0.02
270°
Apr 16, 20:59 45.56080° -123.99085° 8 min 0.04 0.01
283°
Apr 16, 20:51 45.56079° -123.99081° 2 min 0.04 0.00
Apr 16, 20:49 45.56079° -123.99081° 8 min 0.04 0.01
270°
Apr 16, 20:41 45.56079° -123.99078° 2 min 0.04 0.00
Apr 16, 20:39 45.56079° -123.99078° 8 min 0.04 0.00
Apr 16, 20:31 45.56079° -123.99078° 2 min 0.04 0.03
90°
Apr 16, 20:29 45.56079° -123.99081° 8 min 0.04 0.01
270°
Apr 16, 20:21 45.56079° -123.99076° 2 min 0.04 0.03
90°
Apr 16, 20:19 45.56079° -123.99078° 8 min 0.04 0.01
115°
Apr 16, 20:11 45.56080° -123.99081° 2 min 0.04 0.10
129°
Apr 16, 20:09 45.56083° -123.99087° 8 min 0.04 0.00
270°
Apr 16, 20:01 45.56083° -123.99085° 2 min 0.04 0.06
126°
Apr 16, 19:59 45.56085° -123.99089° 8 min 0.04 0.02
319°
Apr 16, 19:51 45.56082° -123.99085° 1 min 0.04 0.04
234°
Apr 16, 19:49 45.56083° -123.99083° 8 min 0.04 0.01
Apr 16, 19:41 45.56082° -123.99083° 2 min 0.04 0.03
90°
Apr 16, 19:39 45.56082° -123.99085° 8 min 0.04 0.00
Apr 16, 19:31 45.56082° -123.99085° 2 min 0.04 0.03
270°
Apr 16, 19:29 45.56082° -123.99083° 8 min 0.04 0.01
Apr 16, 19:21 45.56080° -123.99083° 2 min 0.04 0.04
180°
Apr 16, 19:19 45.56082° -123.99083° 8 min 0.04 0.00
Apr 16, 19:11 45.56082° -123.99083° 2 min 0.04 0.04
Apr 16, 19:09 45.56080° -123.99083° 8 min 0.04 0.01
215°
Apr 16, 19:01 45.56082° -123.99081° 2 min 0.04 0.00
Apr 16, 18:59 45.56082° -123.99081° 8 min 0.04 0.01
126°
Apr 16, 18:51 45.56083° -123.99083° 2 min 0.04 0.04
306°
Apr 16, 18:49 45.56082° -123.99081° 8 min 0.04 0.01
270°
Apr 16, 18:41 45.56082° -123.99076° 2 min 0.04 0.03
90°
Apr 16, 18:39 45.56082° -123.99078° 8 min 0.04 0.00
Apr 16, 18:31 45.56082° -123.99078° 2 min 0.04 0.03
270°
Apr 16, 18:29 45.56082° -123.99076° 8 min 0.04 0.01
35°
Apr 16, 18:21 45.56080° -123.99078° 2 min 0.04 0.03
270°
Apr 16, 18:19 45.56080° -123.99076° 8 min 0.04 0.01
295°
Apr 16, 18:11 45.56079° -123.99074° 2 min 0.04 0.00
Apr 16, 18:09 45.56079° -123.99074° 8 min 0.04 0.01
115°
Apr 16, 18:01 45.56080° -123.99076° 2 min 0.04 0.00
Apr 16, 17:59 45.56080° -123.99076° 8 min 0.04 0.01
270°
Apr 16, 17:51 45.56080° -123.99074° 2 min 0.04 0.00
Apr 16, 17:49 45.56080° -123.99074° 8 min 0.04 0.00
Apr 16, 17:41 45.56080° -123.99074° 2 min 0.04 0.00
Apr 16, 17:39 45.56080° -123.99074° 8 min 0.04 0.01
90°
Apr 16, 17:31 45.56080° -123.99076° 2 min 0.04 0.03
270°
Apr 16, 17:29 45.56080° -123.99074° 8 min 0.04 0.00
Apr 16, 17:21 45.56080° -123.99074° 2 min 0.04 0.03
90°
Apr 16, 17:19 45.56080° -123.99076° 8 min 0.04 0.02
137°
Apr 16, 17:11 45.56083° -123.99081° 2 min 0.04 0.00
Apr 16, 17:09 45.56083° -123.99081° 8 min 0.04 0.01
180°
Apr 16, 17:01 45.56085° -123.99081° 2 min 0.03 0.03
90°
Apr 16, 16:59 45.56085° -123.99083° 8 min 0.03 0.01
180°
Apr 16, 16:51 45.56086° -123.99083° 2 min 0.03 0.09
283°
Apr 16, 16:49 45.56085° -123.99076° 8 min 0.03 0.04
292°
Apr 16, 16:41 45.56082° -123.99065° 2 min 0.03 0.00
Apr 16, 16:39 45.56082° -123.99065° 8 min 0.03 0.00
Apr 16, 16:31 45.56082° -123.99065° 2 min 0.03 0.00
Apr 16, 16:29 45.56082° -123.99065° 8 min 0.03 0.01
90°
Apr 16, 16:21 45.56082° -123.99068° 2 min 0.03 0.00
Apr 16, 16:19 45.56082° -123.99068° 8 min 0.03 0.00
Apr 16, 16:11 45.56082° -123.99068° 2 min 0.03 0.00
Apr 16, 16:09 45.56082° -123.99068° 8 min 0.03 0.01
270°
Apr 16, 16:01 45.56082° -123.99065° 2 min 0.03 0.00
Apr 16, 15:59 45.56082° -123.99065° 8 min 0.03 0.00
Apr 16, 15:51 45.56082° -123.99065° 2 min 0.03 0.00
Apr 16, 15:49 45.56082° -123.99065° 8 min 0.03 0.01
270°
Apr 16, 15:41 45.56082° -123.99063° 2 min 0.03 0.00
Apr 16, 15:39 45.56082° -123.99063° 8 min 0.03 0.01
126°
Apr 16, 15:31 45.56083° -123.99065° 2 min 0.03 0.03
270°
Apr 16, 15:29 45.56083° -123.99063° 8 min 0.03 0.00
Apr 16, 15:21 45.56083° -123.99063° 2 min 0.03 0.02
270°
Apr 16, 15:19 45.56083° -123.99062° 8 min 0.03 0.00
90°
Apr 16, 15:11 45.56083° -123.99063° 2 min 0.03 0.00
Apr 16, 15:09 45.56083° -123.99063° 8 min 0.03 0.01
90°
Apr 16, 15:01 45.56083° -123.99065° 2 min 0.03 0.03
270°
Apr 16, 14:59 45.56083° -123.99063° 8 min 0.03 0.01
90°
Apr 16, 14:51 45.56083° -123.99068° 2 min 0.03 0.00
Apr 16, 14:49 45.56083° -123.99068° 8 min 0.03 0.01
180°
Apr 16, 14:41 45.56085° -123.99068° 2 min 0.03 0.03
Apr 16, 14:39 45.56083° -123.99068° 8 min 0.03 0.01
180°
Apr 16, 14:31 45.56085° -123.99068° 2 min 0.03 0.00
Apr 16, 14:29 45.56085° -123.99068° 8 min 0.03 0.01
40°
Apr 16, 14:21 45.56083° -123.99070° 2 min 0.03 0.03
270°
Apr 16, 14:19 45.56083° -123.99068° 8 min 0.03 0.02
114°
Apr 16, 14:11 45.56085° -123.99074° 2 min 0.03 0.02
270°
Apr 16, 14:09 45.56085° -123.99072° 8 min 0.03 0.01
320°
Apr 16, 14:01 45.56083° -123.99070° 2 min 0.03 0.03
90°
Apr 16, 13:59 45.56083° -123.99072° 8 min 0.03 0.01
180°
Apr 16, 13:51 45.56085° -123.99072° 2 min 0.03 0.00
Apr 16, 13:49 45.56085° -123.99072° 8 min 0.03 0.00
Apr 16, 13:41 45.56085° -123.99072° 2 min 0.03 0.02
90°
Apr 16, 13:39 45.56085° -123.99074° 8 min 0.03 0.00
Apr 16, 13:31 45.56085° -123.99074° 2 min 0.03 0.00
Apr 16, 13:29 45.56085° -123.99074° 8 min 0.03 0.00
Apr 16, 13:21 45.56085° -123.99074° 2 min 0.03 0.03
Apr 16, 13:19 45.56083° -123.99074° 8 min 0.03 0.00
Apr 16, 13:11 45.56083° -123.99074° 2 min 0.03 0.04
140°
Apr 16, 13:09 45.56085° -123.99076° 8 min 0.03 0.01
Apr 16, 13:01 45.56083° -123.99076° 2 min 0.03 0.00
Apr 16, 12:59 45.56083° -123.99076° 8 min 0.03 0.01
180°
Apr 16, 12:51 45.56085° -123.99076° 2 min 0.03 0.03
Apr 16, 12:49 45.56083° -123.99076° 8 min 0.03 0.02
121°
Apr 16, 12:41 45.56085° -123.99081° 2 min 0.03 0.03
270°
Apr 16, 12:39 45.56085° -123.99078° 8 min 0.03 0.01
90°
Apr 16, 12:31 45.56085° -123.99081° 2 min 0.03 0.03
Apr 16, 12:29 45.56083° -123.99081° 8 min 0.04 0.01
90°
Apr 16, 12:21 45.56083° -123.99083° 2 min 0.04 0.00
Apr 16, 12:19 45.56083° -123.99083° 8 min 0.04 0.01
140°
Apr 16, 12:11 45.56085° -123.99085° 2 min 0.03 0.00
Apr 16, 12:09 45.56085° -123.99085° 8 min 0.03 0.01
320°
Apr 16, 12:01 45.56083° -123.99083° 2 min 0.04 0.00
Apr 16, 11:59 45.56083° -123.99083° 8 min 0.04 0.01
Apr 16, 11:51 45.56082° -123.99083° 2 min 0.04 0.00
Apr 16, 11:49 45.56082° -123.99083° 8 min 0.04 0.00
Apr 16, 11:41 45.56082° -123.99083° 2 min 0.04 0.02
180°
Apr 16, 11:39 45.56083° -123.99083° 8 min 0.04 0.01
90°
Apr 16, 11:31 45.56083° -123.99087° 2 min 0.04 0.00
Apr 16, 11:29 45.56083° -123.99087° 8 min 0.04 0.01
293°
Apr 16, 11:21 45.56082° -123.99083° 2 min 0.04 0.00
Apr 16, 11:19 45.56082° -123.99083° 8 min 0.04 0.01
270°
Apr 16, 11:11 45.56082° -123.99081° 2 min 0.04 0.00
Apr 16, 11:09 45.56082° -123.99081° 8 min 0.04 0.01
90°
Apr 16, 11:01 45.56082° -123.99083° 2 min 0.04 0.00
Apr 16, 10:59 45.56082° -123.99083° 8 min 0.04 0.00
Apr 16, 10:51 45.56082° -123.99083° 2 min 0.04 0.00
Apr 16, 10:49 45.56082° -123.99083° 8 min 0.04 0.01
180°
Apr 16, 10:41 45.56083° -123.99083° 2 min 0.04 0.02
Apr 16, 10:39 45.56082° -123.99083° 8 min 0.04 0.01
270°
Apr 16, 10:31 45.56082° -123.99081° 2 min 0.04 0.03
90°
Apr 16, 10:29 45.56082° -123.99083° 8 min 0.04 0.01
Apr 16, 10:21 45.56080° -123.99083° 2 min 0.04 0.04
180°
Apr 16, 10:19 45.56082° -123.99083° 8 min 0.04 0.00
Apr 16, 10:11 45.56082° -123.99083° 2 min 0.04 0.03
90°
Apr 16, 10:09 45.56082° -123.99085° 8 min 0.04 0.00
Apr 16, 10:01 45.56082° -123.99085° 2 min 0.04 0.00
Apr 16, 09:59 45.56082° -123.99085° 8 min 0.04 0.03
290°
Apr 16, 09:51 45.56080° -123.99076° 2 min 0.04 0.00
Apr 16, 09:49 45.56080° -123.99076° 8 min 0.04 0.02
115°
Apr 16, 09:41 45.56082° -123.99083° 2 min 0.04 0.03
270°
Apr 16, 09:39 45.56082° -123.99081° 8 min 0.04 0.03
291°
Apr 16, 09:31 45.56080° -123.99072° 2 min 0.04 0.00
Apr 16, 09:29 45.56080° -123.99072° 8 min 0.04 0.01
270°
Apr 16, 09:21 45.56080° -123.99070° 2 min 0.04 0.01
Apr 16, 09:19 45.56079° -123.99070° 8 min 0.04 0.00
Apr 16, 09:11 45.56079° -123.99070° 1 min 0.04 0.00
Apr 16, 09:09 45.56079° -123.99070° 8 min 0.04 0.01
270°
Apr 16, 09:01 45.56079° -123.99068° 2 min 0.04 0.00
Apr 16, 08:59 45.56079° -123.99068° 8 min 0.04 0.01
90°
Apr 16, 08:51 45.56079° -123.99070° 2 min 0.04 0.03
270°
Apr 16, 08:49 45.56079° -123.99068° 8 min 0.04 0.00
180°
Apr 16, 08:41 45.56080° -123.99068° 2 min 0.04 0.03
295°
Apr 16, 08:39 45.56079° -123.99065° 8 min 0.04 0.00
Apr 16, 08:31 45.56079° -123.99065° 2 min 0.04 0.03
115°
Apr 16, 08:29 45.56080° -123.99068° 8 min 0.04 0.01
295°
Apr 16, 08:21 45.56079° -123.99065° 2 min 0.04 0.03
90°
Apr 16, 08:19 45.56079° -123.99068° 8 min 0.04 0.01
270°
Apr 16, 08:11 45.56079° -123.99065° 2 min 0.04 0.00
Apr 16, 08:09 45.56079° -123.99065° 8 min 0.04 0.01
270°
Apr 16, 08:01 45.56079° -123.99063° 2 min 0.04 0.03
90°
Apr 16, 07:59 45.56079° -123.99065° 8 min 0.04 0.01
270°
Apr 16, 07:51 45.56079° -123.99063° 2 min 0.04 0.00
Apr 16, 07:49 45.56079° -123.99063° 8 min 0.04 0.00
270°
Apr 16, 07:41 45.56079° -123.99062° 2 min 0.04 0.00
Apr 16, 07:39 45.56079° -123.99062° 8 min 0.04 0.00
90°
Apr 16, 07:31 45.56079° -123.99063° 2 min 0.04 0.06
152°
Apr 16, 07:29 45.56082° -123.99065° 8 min 0.03 0.00
Apr 16, 07:21 45.56082° -123.99065° 2 min 0.03 0.00
Apr 16, 07:19 45.56082° -123.99065° 8 min 0.03 0.01
270°
Apr 16, 07:11 45.56082° -123.99063° 2 min 0.03 0.03
90°
Apr 16, 07:09 45.56082° -123.99065° 8 min 0.03 0.00
Apr 16, 07:01 45.56082° -123.99065° 2 min 0.03 0.03
90°
Apr 16, 06:59 45.56082° -123.99068° 8 min 0.03 0.01
270°
Apr 16, 06:51 45.56082° -123.99063° 2 min 0.03 0.00
Apr 16, 06:49 45.56082° -123.99063° 8 min 0.03 0.01
270°
Apr 16, 06:41 45.56082° -123.99059° 2 min 0.03 0.00
Apr 16, 06:39 45.56082° -123.99059° 8 min 0.03 0.01
Apr 16, 06:31 45.56080° -123.99059° 2 min 0.04 0.00
Apr 16, 06:29 45.56080° -123.99059° 8 min 0.04 0.00
Apr 16, 06:21 45.56080° -123.99059° 2 min 0.04 0.04
180°
Apr 16, 06:19 45.56082° -123.99059° 8 min 0.03 0.01
Apr 16, 06:11 45.56080° -123.99059° 2 min 0.04 0.03
90°
Apr 16, 06:09 45.56080° -123.99062° 8 min 0.04 0.01
270°
Apr 16, 06:01 45.56080° -123.99059° 2 min 0.04 0.04
180°
Apr 16, 05:59 45.56082° -123.99059° 8 min 0.03 0.01
325°
Apr 16, 05:51 45.56080° -123.99057° 2 min 0.04 0.00
Apr 16, 05:49 45.56080° -123.99057° 8 min 0.04 0.01
270°
Apr 16, 05:41 45.56080° -123.99055° 2 min 0.04 0.04
180°
Apr 16, 05:39 45.56082° -123.99055° 8 min 0.03 0.01
270°
Apr 16, 05:31 45.56082° -123.99050° 2 min 0.04 0.05
35°
Apr 16, 05:29 45.56080° -123.99052° 8 min 0.04 0.02
180°
Apr 16, 05:21 45.56083° -123.99052° 2 min 0.03 0.00
Apr 16, 05:19 45.56083° -123.99052° 8 min 0.03 0.01
Apr 16, 05:11 45.56082° -123.99052° 2 min 0.03 0.00
Apr 16, 05:09 45.56082° -123.99052° 8 min 0.03 0.01
90°
Apr 16, 05:01 45.56082° -123.99055° 2 min 0.03 0.00
Apr 16, 04:59 45.56082° -123.99055° 8 min 0.03 0.00
Apr 16, 04:51 45.56082° -123.99055° 2 min 0.03 0.00
Apr 16, 04:49 45.56082° -123.99055° 8 min 0.03 0.01
90°
Apr 16, 04:41 45.56082° -123.99057° 2 min 0.03 0.00
Apr 16, 04:39 45.56082° -123.99057° 8 min 0.03 0.01
270°
Apr 16, 04:31 45.56082° -123.99055° 2 min 0.03 0.00
Apr 16, 04:29 45.56082° -123.99055° 8 min 0.03 0.01
90°
Apr 16, 04:21 45.56082° -123.99057° 2 min 0.03 0.00
Apr 16, 04:19 45.56082° -123.99057° 8 min 0.03 0.00
Apr 16, 04:11 45.56082° -123.99057° 2 min 0.03 0.03
270°
Apr 16, 04:09 45.56082° -123.99055° 8 min 0.03 0.01
90°
Apr 16, 04:01 45.56082° -123.99059° 1 min 0.03 0.04
Apr 16, 03:59 45.56080° -123.99059° 8 min 0.04 0.01
90°
Apr 16, 03:51 45.56080° -123.99062° 2 min 0.04 0.03
270°
Apr 16, 03:49 45.56080° -123.99059° 8 min 0.04 0.00
Apr 16, 03:41 45.56080° -123.99059° 2 min 0.04 0.05
90°
Apr 16, 03:39 45.56080° -123.99063° 8 min 0.04 0.02
229°
Apr 16, 03:31 45.56082° -123.99059° 1 min 0.03 0.06
49°
Apr 16, 03:29 45.56080° -123.99063° 8 min 0.04 0.00
270°
Apr 16, 03:21 45.56080° -123.99062° 2 min 0.04 0.00
Apr 16, 03:19 45.56080° -123.99062° 8 min 0.04 0.01
180°
Apr 16, 03:11 45.56082° -123.99062° 2 min 0.03 0.02
90°
Apr 16, 03:09 45.56082° -123.99063° 8 min 0.03 0.01
90°
Apr 16, 03:01 45.56082° -123.99065° 2 min 0.03 0.03
90°
Apr 16, 02:59 45.56082° -123.99068° 8 min 0.03 0.00
Apr 16, 02:51 45.56082° -123.99068° 2 min 0.03 0.02
180°
Apr 16, 02:49 45.56083° -123.99068° 8 min 0.03 0.01
Apr 16, 02:41 45.56082° -123.99068° 2 min 0.03 0.02
180°
Apr 16, 02:39 45.56083° -123.99068° 8 min 0.03 0.01
90°
Apr 16, 02:31 45.56083° -123.99070° 2 min 0.03 0.04
306°
Apr 16, 02:29 45.56082° -123.99068° 8 min 0.03 0.01
126°
Apr 16, 02:21 45.56083° -123.99070° 2 min 0.03 0.03
90°
Apr 16, 02:19 45.56083° -123.99072° 8 min 0.03 0.00
90°
Apr 16, 02:11 45.56083° -123.99074° 2 min 0.03 0.00
Apr 16, 02:09 45.56083° -123.99074° 8 min 0.03 0.01
Apr 16, 02:01 45.56082° -123.99074° 2 min 0.04 0.02
180°
Apr 16, 01:59 45.56083° -123.99074° 8 min 0.03 0.01
54°
Apr 16, 01:51 45.56082° -123.99076° 2 min 0.04 0.03
270°
Apr 16, 01:49 45.56082° -123.99074° 8 min 0.04 0.00
Apr 16, 01:41 45.56082° -123.99074° 2 min 0.04 0.00
Apr 16, 01:39 45.56082° -123.99074° 8 min 0.04 0.00
Apr 16, 01:31 45.56082° -123.99074° 2 min 0.04 0.04
Apr 16, 01:29 45.56080° -123.99074° 8 min 0.04 0.01
145°
Apr 16, 01:21 45.56082° -123.99076° 2 min 0.04 0.00
Apr 16, 01:19 45.56082° -123.99076° 8 min 0.04 0.01
90°
Apr 16, 01:11 45.56082° -123.99078° 2 min 0.04 0.03
90°
Apr 16, 01:09 45.56082° -123.99081° 8 min 0.04 0.01
270°
Apr 16, 01:01 45.56082° -123.99078° 2 min 0.04 0.06
90°
Apr 16, 00:59 45.56082° -123.99083° 8 min 0.04 0.00
Apr 16, 00:51 45.56082° -123.99083° 2 min 0.04 0.00
Apr 16, 00:49 45.56082° -123.99083° 8 min 0.04 0.01
270°
Apr 16, 00:41 45.56082° -123.99081° 2 min 0.04 0.03
90°
Apr 16, 00:39 45.56082° -123.99083° 8 min 0.04 0.01
180°
Apr 16, 00:31 45.56083° -123.99083° 2 min 0.04 0.02
Apr 16, 00:29 45.56082° -123.99083° 8 min 0.04 0.01
180°
Apr 16, 00:21 45.56083° -123.99083° 2 min 0.04 0.00
Apr 16, 00:19 45.56083° -123.99083° 8 min 0.04 0.01
270°
Apr 16, 00:11 45.56083° -123.99081° 2 min 0.04 0.03
90°
Apr 16, 00:09 45.56083° -123.99083° 8 min 0.04 0.01
54°
Apr 16, 00:01 45.56082° -123.99085° 2 min 0.04 0.03
270°
Apr 15, 23:59 45.56082° -123.99083° 8 min 0.04 0.01
90°
Apr 15, 23:51 45.56082° -123.99085° 2 min 0.04 0.02
90°
Apr 15, 23:49 45.56082° -123.99087° 8 min 0.04 0.01
270°
Apr 15, 23:41 45.56082° -123.99083° 2 min 0.04 0.00
Apr 15, 23:39 45.56082° -123.99083° 8 min 0.04 0.02
105°
Apr 15, 23:31 45.56083° -123.99089° 2 min 0.04 0.00
Apr 15, 23:29 45.56083° -123.99089° 8 min 0.04 0.01
270°
Apr 15, 23:21 45.56083° -123.99087° 2 min 0.04 0.05
270°
Apr 15, 23:19 45.56083° -123.99083° 8 min 0.04 0.01
90°
Apr 15, 23:11 45.56083° -123.99085° 2 min 0.04 0.04
306°
Apr 15, 23:09 45.56082° -123.99083° 8 min 0.04 0.00
Apr 15, 23:01 45.56082° -123.99083° 2 min 0.04 0.00
Apr 15, 22:59 45.56082° -123.99083° 8 min 0.04 0.00
Apr 15, 22:51 45.56082° -123.99083° 2 min 0.04 0.04
Apr 15, 22:49 45.56080° -123.99083° 8 min 0.04 0.01
270°
Apr 15, 22:41 45.56080° -123.99081° 2 min 0.04 0.04
180°
Apr 15, 22:39 45.56082° -123.99081° 8 min 0.04 0.01
90°
Apr 15, 22:31 45.56082° -123.99083° 1 min 0.04 0.05
325°
Apr 15, 22:29 45.56080° -123.99081° 8 min 0.04 0.01
270°
Apr 15, 22:21 45.56080° -123.99078° 2 min 0.04 0.04
180°
Apr 15, 22:19 45.56082° -123.99078° 8 min 0.04 0.02
54°
Apr 15, 22:11 45.56080° -123.99083° 2 min 0.04 0.04
180°
Apr 15, 22:09 45.56082° -123.99083° 8 min 0.04 0.01
270°
Apr 15, 22:01 45.56082° -123.99081° 2 min 0.04 0.03
90°
Apr 15, 21:59 45.56082° -123.99083° 8 min 0.04 0.01
Apr 15, 21:51 45.56080° -123.99083° 2 min 0.04 0.04
180°
Apr 15, 21:49 45.56082° -123.99083° 8 min 0.04 0.03
290°
Apr 15, 21:41 45.56080° -123.99074° 2 min 0.04 0.05
286°
Apr 15, 21:39 45.56079° -123.99070° 8 min 0.04 0.01
245°
Apr 15, 21:31 45.56080° -123.99068° 2 min 0.04 0.01
Apr 15, 21:29 45.56079° -123.99068° 8 min 0.04 0.00
Apr 15, 21:21 45.56079° -123.99068° 2 min 0.04 0.00
Apr 15, 21:19 45.56079° -123.99068° 8 min 0.04 0.01
Apr 15, 21:11 45.56077° -123.99068° 2 min 0.04 0.00
Apr 15, 21:09 45.56077° -123.99068° 8 min 0.04 0.02
126°
Apr 15, 21:01 45.56079° -123.99072° 2 min 0.04 0.04
Apr 15, 20:59 45.56077° -123.99072° 8 min 0.04 0.02
139°
Apr 15, 20:51 45.56080° -123.99076° 2 min 0.04 0.03
270°
Apr 15, 20:49 45.56080° -123.99074° 8 min 0.04 0.01
205°
Apr 15, 20:41 45.56082° -123.99072° 2 min 0.04 0.05
325°
Apr 15, 20:39 45.56080° -123.99070° 8 min 0.04 0.02
131°
Apr 15, 20:31 45.56082° -123.99074° 2 min 0.04 0.02
270°
Apr 15, 20:29 45.56082° -123.99072° 8 min 0.04 0.00
Apr 15, 20:21 45.56082° -123.99072° 2 min 0.04 0.02
90°
Apr 15, 20:19 45.56082° -123.99074° 8 min 0.04 0.00
Apr 15, 20:11 45.56082° -123.99074° 2 min 0.04 0.02
270°
Apr 15, 20:09 45.56082° -123.99072° 8 min 0.04 0.00
90°
Apr 15, 20:01 45.56082° -123.99074° 2 min 0.04 0.00
Apr 15, 19:59 45.56082° -123.99074° 8 min 0.04 0.00
Apr 15, 19:51 45.56082° -123.99074° 2 min 0.04 0.04
126°
Apr 15, 19:49 45.56083° -123.99076° 8 min 0.03 0.01
306°
Apr 15, 19:41 45.56082° -123.99074° 2 min 0.04 0.03
90°
Apr 15, 19:39 45.56082° -123.99076° 8 min 0.04 0.01
325°
Apr 15, 19:31 45.56080° -123.99074° 2 min 0.04 0.04
180°
Apr 15, 19:29 45.56082° -123.99074° 8 min 0.04 0.00
Apr 15, 19:21 45.56082° -123.99074° 2 min 0.04 0.04
Apr 15, 19:19 45.56080° -123.99074° 8 min 0.04 0.00
Apr 15, 19:11 45.56080° -123.99074° 2 min 0.04 0.07
126°
Apr 15, 19:09 45.56082° -123.99078° 8 min 0.04 0.01
270°
Apr 15, 19:01 45.56082° -123.99076° 2 min 0.04 0.04
Apr 15, 18:59 45.56080° -123.99076° 8 min 0.04 0.01
180°
Apr 15, 18:51 45.56082° -123.99076° 2 min 0.04 0.03
90°
Apr 15, 18:49 45.56082° -123.99078° 8 min 0.04 0.01
270°
Apr 15, 18:41 45.56082° -123.99076° 2 min 0.04 0.04
Apr 15, 18:39 45.56080° -123.99076° 8 min 0.04 0.02
126°
Apr 15, 18:31 45.56082° -123.99081° 2 min 0.04 0.07
306°
Apr 15, 18:29 45.56080° -123.99076° 8 min 0.04 0.01
270°
Apr 15, 18:21 45.56080° -123.99074° 2 min 0.04 0.03
90°
Apr 15, 18:19 45.56080° -123.99076° 8 min 0.04 0.01
90°
Apr 15, 18:11 45.56080° -123.99078° 2 min 0.04 0.00
Apr 15, 18:09 45.56080° -123.99078° 8 min 0.04 0.01
145°
Apr 15, 18:01 45.56082° -123.99081° 2 min 0.04 0.03
90°
Apr 15, 17:59 45.56082° -123.99083° 8 min 0.04 0.01
Apr 15, 17:51 45.56080° -123.99083° 2 min 0.04 0.00
Apr 15, 17:49 45.56080° -123.99083° 8 min 0.04 0.02
118°
Apr 15, 17:41 45.56082° -123.99089° 2 min 0.04 0.04
Apr 15, 17:39 45.56080° -123.99089° 8 min 0.04 0.03
297°
Apr 15, 17:31 45.56077° -123.99081° 2 min 0.04 0.03
270°
Apr 15, 17:29 45.56077° -123.99078° 8 min 0.04 0.02
270°
Apr 15, 17:21 45.56077° -123.99072° 2 min 0.04 0.05
325°
Apr 15, 17:19 45.56075° -123.99070° 8 min 0.04 0.00
Apr 15, 17:11 45.56075° -123.99070° 2 min 0.04 0.04
180°
Apr 15, 17:09 45.56077° -123.99070° 7 min 0.04 0.00
Apr 15, 17:01 45.56077° -123.99070° 2 min 0.04 0.00
Apr 15, 16:59 45.56077° -123.99070° 8 min 0.04 0.00
Apr 15, 16:51 45.56077° -123.99070° 2 min 0.04 0.00
Apr 15, 16:49 45.56077° -123.99070° 8 min 0.04 0.00
Apr 15, 16:41 45.56077° -123.99070° 2 min 0.04 0.03
90°
Apr 15, 16:39 45.56077° -123.99072° 8 min 0.04 0.01
270°
Apr 15, 16:31 45.56077° -123.99070° 2 min 0.04 0.03
270°
Apr 15, 16:29 45.56077° -123.99068° 8 min 0.04 0.01
270°
Apr 15, 16:21 45.56077° -123.99065° 2 min 0.04 0.03
90°
Apr 15, 16:19 45.56077° -123.99068° 8 min 0.04 0.01
270°
Apr 15, 16:11 45.56077° -123.99065° 2 min 0.04 0.03
270°
Apr 15, 16:09 45.56077° -123.99063° 8 min 0.04 0.01
90°
Apr 15, 16:01 45.56077° -123.99065° 2 min 0.04 0.03
270°
Apr 15, 15:59 45.56077° -123.99063° 8 min 0.04 0.01
145°
Apr 15, 15:51 45.56079° -123.99065° 2 min 0.04 0.03
90°
Apr 15, 15:49 45.56079° -123.99068° 8 min 0.04 0.00
Apr 15, 15:41 45.56079° -123.99068° 2 min 0.04 0.06
270°
Apr 15, 15:39 45.56079° -123.99063° 8 min 0.04 0.01
115°
Apr 15, 15:31 45.56080° -123.99065° 2 min 0.04 0.00
Apr 15, 15:29 45.56080° -123.99065° 8 min 0.04 0.01
270°
Apr 15, 15:21 45.56080° -123.99062° 2 min 0.04 0.02
54°
Apr 15, 15:19 45.56079° -123.99063° 8 min 0.04 0.00
Apr 15, 15:11 45.56079° -123.99063° 2 min 0.04 0.01
180°
Apr 15, 15:09 45.56080° -123.99063° 8 min 0.04 0.00
Apr 15, 15:01 45.56080° -123.99063° 2 min 0.04 0.02
306°
Apr 15, 14:59 45.56079° -123.99062° 8 min 0.04 0.01
245°
Apr 15, 14:51 45.56080° -123.99059° 2 min 0.04 0.03
90°
Apr 15, 14:49 45.56080° -123.99062° 8 min 0.04 0.01
155°
Apr 15, 14:41 45.56082° -123.99063° 2 min 0.03 0.00
Apr 15, 14:39 45.56082° -123.99063° 8 min 0.03 0.01
35°
Apr 15, 14:31 45.56080° -123.99065° 2 min 0.04 0.05
270°
Apr 15, 14:29 45.56080° -123.99062° 8 min 0.04 0.02
131°
Apr 15, 14:21 45.56082° -123.99065° 2 min 0.03 0.05
35°
Apr 15, 14:19 45.56080° -123.99068° 8 min 0.04 0.01
215°
Apr 15, 14:11 45.56082° -123.99065° 2 min 0.03 0.03
270°
Apr 15, 14:09 45.56082° -123.99063° 8 min 0.03 0.01
35°
Apr 15, 14:01 45.56080° -123.99065° 2 min 0.04 0.04
180°
Apr 15, 13:59 45.56082° -123.99065° 8 min 0.03 0.01
90°
Apr 15, 13:51 45.56082° -123.99068° 2 min 0.03 0.04
Apr 15, 13:49 45.56080° -123.99068° 8 min 0.04 0.00
Apr 15, 13:41 45.56080° -123.99068° 2 min 0.04 0.00
Apr 15, 13:39 45.56080° -123.99068° 8 min 0.04 0.01
90°
Apr 15, 13:31 45.56080° -123.99070° 2 min 0.04 0.05
145°
Apr 15, 13:29 45.56082° -123.99072° 8 min 0.04 0.00
Apr 15, 13:21 45.56082° -123.99072° 2 min 0.04 0.04
234°
Apr 15, 13:19 45.56083° -123.99070° 8 min 0.03 0.01
54°
Apr 15, 13:11 45.56082° -123.99072° 2 min 0.04 0.02
90°
Apr 15, 13:09 45.56082° -123.99074° 8 min 0.04 0.00
270°
Apr 15, 13:01 45.56082° -123.99072° 2 min 0.04 0.02
90°
Apr 15, 12:59 45.56082° -123.99074° 8 min 0.04 0.00
Apr 15, 12:51 45.56082° -123.99074° 2 min 0.04 0.00
Apr 15, 12:49 45.56082° -123.99074° 8 min 0.04 0.01
Apr 15, 12:41 45.56080° -123.99074° 2 min 0.04 0.00
Apr 15, 12:39 45.56080° -123.99074° 8 min 0.04 0.00
Apr 15, 12:31 45.56080° -123.99074° 2 min 0.04 0.04
180°
Apr 15, 12:29 45.56082° -123.99074° 8 min 0.04 0.01
90°
Apr 15, 12:21 45.56082° -123.99078° 2 min 0.04 0.07
306°
Apr 15, 12:19 45.56080° -123.99074° 8 min 0.04 0.00
Apr 15, 12:11 45.56080° -123.99074° 2 min 0.04 0.04
180°
Apr 15, 12:09 45.56082° -123.99074° 8 min 0.04 0.01
335°
Apr 15, 12:01 45.56080° -123.99072° 2 min 0.04 0.00
Apr 15, 11:59 45.56080° -123.99072° 8 min 0.04 0.00
90°
Apr 15, 11:51 45.56080° -123.99074° 2 min 0.04 0.04
180°
Apr 15, 11:49 45.56082° -123.99074° 8 min 0.04 0.02
311°
Apr 15, 11:41 45.56080° -123.99070° 2 min 0.04 0.00
Apr 15, 11:39 45.56080° -123.99070° 7 min 0.04 0.01
90°
Apr 15, 11:31 45.56080° -123.99074° 2 min 0.04 0.03
90°
Apr 15, 11:29 45.56080° -123.99076° 8 min 0.04 0.01
270°
Apr 15, 11:21 45.56080° -123.99074° 2 min 0.04 0.02
270°
Apr 15, 11:19 45.56080° -123.99072° 8 min 0.04 0.00
90°
Apr 15, 11:11 45.56080° -123.99074° 2 min 0.04 0.00
Apr 15, 11:09 45.56080° -123.99074° 8 min 0.04 0.02
126°
Apr 15, 11:01 45.56082° -123.99078° 2 min 0.04 0.00
Apr 15, 10:59 45.56082° -123.99078° 8 min 0.04 0.02
270°
Apr 15, 10:51 45.56082° -123.99072° 2 min 0.04 0.02
90°
Apr 15, 10:49 45.56082° -123.99074° 8 min 0.04 0.00
Apr 15, 10:41 45.56082° -123.99074° 2 min 0.04 0.02
270°
Apr 15, 10:39 45.56082° -123.99072° 8 min 0.04 0.01
270°
Apr 15, 10:31 45.56082° -123.99070° 2 min 0.04 0.03
270°
Apr 15, 10:29 45.56082° -123.99068° 8 min 0.03 0.02
90°
Apr 15, 10:21 45.56082° -123.99074° 2 min 0.04 0.00
Apr 15, 10:19 45.56082° -123.99074° 8 min 0.04 0.02
298°
Apr 15, 10:11 45.56080° -123.99068° 2 min 0.04 0.00
Apr 15, 10:09 45.56080° -123.99068° 8 min 0.04 0.01
180°
Apr 15, 10:01 45.56082° -123.99068° 2 min 0.03 0.00
Apr 15, 09:59 45.56082° -123.99068° 8 min 0.03 0.01
325°
Apr 15, 09:51 45.56080° -123.99065° 2 min 0.04 0.00
Apr 15, 09:49 45.56080° -123.99065° 8 min 0.04 0.01
90°
Apr 15, 09:41 45.56080° -123.99068° 2 min 0.04 0.06
270°
Apr 15, 09:39 45.56080° -123.99063° 8 min 0.04 0.01
90°
Apr 15, 09:31 45.56080° -123.99068° 2 min 0.04 0.00
Apr 15, 09:29 45.56080° -123.99068° 8 min 0.04 0.01
270°
Apr 15, 09:21 45.56080° -123.99063° 2 min 0.04 0.00
Apr 15, 09:19 45.56080° -123.99063° 8 min 0.04 0.01
306°
Apr 15, 09:11 45.56079° -123.99062° 2 min 0.04 0.03
270°
Apr 15, 09:09 45.56079° -123.99059° 8 min 0.04 0.02
90°
Apr 15, 09:01 45.56079° -123.99065° 2 min 0.04 0.03
270°
Apr 15, 08:59 45.56079° -123.99063° 8 min 0.04 0.00
Apr 15, 08:51 45.56079° -123.99063° 2 min 0.04 0.00
Apr 15, 08:49 45.56079° -123.99063° 8 min 0.04 0.00
270°
Apr 15, 08:41 45.56079° -123.99062° 2 min 0.04 0.00
Apr 15, 08:39 45.56079° -123.99062° 8 min 0.04 0.00
90°
Apr 15, 08:31 45.56079° -123.99063° 2 min 0.04 0.03
115°
Apr 15, 08:29 45.56080° -123.99065° 8 min 0.04 0.01
295°
Apr 15, 08:21 45.56079° -123.99063° 2 min 0.04 0.00
Apr 15, 08:19 45.56079° -123.99063° 8 min 0.04 0.00
Apr 15, 08:11 45.56079° -123.99063° 2 min 0.04 0.00
Apr 15, 08:09 45.56079° -123.99063° 8 min 0.04 0.01
115°
Apr 15, 08:01 45.56080° -123.99065° 2 min 0.04 0.03
65°
Apr 15, 07:59 45.56079° -123.99068° 8 min 0.04 0.01
270°
Apr 15, 07:51 45.56079° -123.99063° 2 min 0.04 0.06
90°
Apr 15, 07:49 45.56079° -123.99068° 8 min 0.04 0.02
306°
Apr 15, 07:41 45.56077° -123.99063° 2 min 0.04 0.05
145°
Apr 15, 07:39 45.56079° -123.99065° 8 min 0.04 0.01
Apr 15, 07:31 45.56077° -123.99065° 2 min 0.04 0.05
145°
Apr 15, 07:29 45.56079° -123.99068° 8 min 0.04 0.01
325°
Apr 15, 07:21 45.56077° -123.99065° 2 min 0.04 0.03
90°
Apr 15, 07:19 45.56077° -123.99068° 8 min 0.04 0.00
Apr 15, 07:11 45.56077° -123.99068° 2 min 0.04 0.03
270°
Apr 15, 07:09 45.56077° -123.99065° 8 min 0.04 0.00
Apr 15, 07:01 45.56077° -123.99065° 2 min 0.04 0.00
Apr 15, 06:59 45.56077° -123.99065° 8 min 0.04 0.00
Apr 15, 06:51 45.56077° -123.99065° 2 min 0.04 0.04
Apr 15, 06:49 45.56075° -123.99065° 8 min 0.04 0.01
270°
Apr 15, 06:41 45.56075° -123.99063° 2 min 0.04 0.03
90°
Apr 15, 06:39 45.56075° -123.99065° 8 min 0.04 0.01
270°
Apr 15, 06:31 45.56075° -123.99063° 1 min 0.04 0.03
90°
Apr 15, 06:29 45.56075° -123.99065° 8 min 0.04 0.01
270°
Apr 15, 06:21 45.56075° -123.99063° 2 min 0.04 0.02
270°
Apr 15, 06:19 45.56075° -123.99062° 8 min 0.04 0.00
Apr 15, 06:11 45.56075° -123.99062° 2 min 0.04 0.00
Apr 15, 06:09 45.56075° -123.99062° 8 min 0.04 0.01
180°
Apr 15, 06:01 45.56077° -123.99062° 1 min 0.04 0.00
Apr 15, 05:59 45.56077° -123.99062° 8 min 0.04 0.00
90°
Apr 15, 05:51 45.56077° -123.99063° 2 min 0.04 0.02
270°
Apr 15, 05:49 45.56077° -123.99062° 8 min 0.04 0.00
90°